createdAt,value
2022-08-28T00:02:10.752Z,12.13
2022-08-28T00:04:38.745Z,11.73
2022-08-28T00:07:07.095Z,11.65
2022-08-28T00:09:35.586Z,16.98
2022-08-28T00:12:04.648Z,9.02
2022-08-28T00:14:32.953Z,11.32
2022-08-28T00:17:00.975Z,13.23
2022-08-28T00:19:29.185Z,12.48
2022-08-28T00:21:57.458Z,10.57
2022-08-28T00:24:25.328Z,10.82
2022-08-28T00:27:11.701Z,8.27
2022-08-28T00:29:39.580Z,10.00
2022-08-28T00:32:09.055Z,7.22
2022-08-28T00:34:37.228Z,13.48
2022-08-28T00:37:05.568Z,8.25
2022-08-28T00:39:33.552Z,8.15
2022-08-28T00:42:01.510Z,6.85
2022-08-28T00:44:29.988Z,12.00
2022-08-28T00:46:59.715Z,10.23
2022-08-28T00:49:31.229Z,10.43
2022-08-28T00:52:08.230Z,10.73
2022-08-28T00:54:58.833Z,13.48
2022-08-28T00:57:35.183Z,12.75
2022-08-28T01:00:05.942Z,14.75
2022-08-28T01:02:34.383Z,13.27
2022-08-28T01:05:02.396Z,15.98
2022-08-28T01:07:30.680Z,16.17
2022-08-28T01:10:00.071Z,15.82
2022-08-28T01:12:30.549Z,16.27
2022-08-28T01:15:00.590Z,12.60
2022-08-28T01:17:34.330Z,16.40
2022-08-28T01:20:06.639Z,18.10
2022-08-28T01:23:12.194Z,15.98
2022-08-28T01:25:40.994Z,14.95
2022-08-28T01:28:14.941Z,14.85
2022-08-28T01:30:45.405Z,17.33
2022-08-28T01:33:16.220Z,16.98
2022-08-28T01:35:46.343Z,18.80
2022-08-28T01:38:19.335Z,16.17
2022-08-28T01:40:49.966Z,15.52
2022-08-28T01:43:23.778Z,18.92
2022-08-28T01:46:02.699Z,18.25
2022-08-28T01:48:33.324Z,17.58
2022-08-28T01:51:01.287Z,15.60
2022-08-28T01:53:32.606Z,14.93
2022-08-28T01:56:05.943Z,19.05
2022-08-28T01:58:38.115Z,13.68
2022-08-28T02:01:11.918Z,13.35
2022-08-28T02:03:43.446Z,16.27
2022-08-28T02:06:12.131Z,16.58
2022-08-28T02:08:40.014Z,17.45
2022-08-28T02:11:09.359Z,14.15
2022-08-28T02:13:38.610Z,15.02
2022-08-28T02:16:07.691Z,16.38
2022-08-28T02:18:35.787Z,14.30
2022-08-28T02:21:04.157Z,14.80
2022-08-28T02:23:32.141Z,17.80
2022-08-28T02:26:00.151Z,14.18
2022-08-28T02:28:28.279Z,12.27
2022-08-28T02:30:56.203Z,16.10
2022-08-28T02:33:24.048Z,11.95
2022-08-28T02:35:52.176Z,15.55
2022-08-28T02:38:20.047Z,15.43
2022-08-28T02:40:47.918Z,13.80
2022-08-28T02:43:15.853Z,14.50
2022-08-28T02:45:43.788Z,16.48
2022-08-28T02:48:16.983Z,14.23
2022-08-28T02:50:46.533Z,13.07
2022-08-28T02:53:14.705Z,16.33
2022-08-28T02:55:42.556Z,15.65
2022-08-28T02:58:10.396Z,13.55
2022-08-28T03:00:39.428Z,14.45
2022-08-28T03:03:07.537Z,13.50
2022-08-28T03:05:35.455Z,13.63
2022-08-28T03:08:03.682Z,13.93
2022-08-28T03:10:31.630Z,13.48
2022-08-28T03:13:02.519Z,12.57
2022-08-28T03:15:38.110Z,12.05
2022-08-28T03:18:11.227Z,11.75
2022-08-28T03:20:40.424Z,12.68
2022-08-28T03:23:26.446Z,11.35
2022-08-28T03:26:05.109Z,11.38
2022-08-28T03:28:42.578Z,10.07
2022-08-28T03:31:14.189Z,14.15
2022-08-28T03:33:43.011Z,10.75
2022-08-28T03:36:13.157Z,9.50
2022-08-28T03:38:42.297Z,10.68
2022-08-28T03:41:15.305Z,9.43
2022-08-28T03:43:43.694Z,7.95
2022-08-28T03:46:16.120Z,10.30
2022-08-28T03:48:45.053Z,17.02
2022-08-28T03:51:16.840Z,9.93
2022-08-28T03:53:45.740Z,12.23
2022-08-28T03:56:16.728Z,9.27
2022-08-28T03:58:44.738Z,9.50
2022-08-28T04:01:12.850Z,10.95
2022-08-28T04:03:40.894Z,11.00
2022-08-28T04:06:08.866Z,9.00
2022-08-28T04:08:36.897Z,10.65
2022-08-28T04:11:05.487Z,9.48
2022-08-28T04:13:33.517Z,6.55
2022-08-28T04:16:11.210Z,8.07
2022-08-28T04:18:41.917Z,10.73
2022-08-28T04:21:13.623Z,10.90
2022-08-28T04:23:45.398Z,8.20
2022-08-28T04:26:16.086Z,11.75
2022-08-28T04:28:44.625Z,8.95
2022-08-28T04:31:13.071Z,8.25
2022-08-28T04:33:41.207Z,6.72
2022-08-28T04:36:12.379Z,8.35
2022-08-28T04:38:43.968Z,7.55
2022-08-28T04:41:13.857Z,7.20
2022-08-28T04:43:42.427Z,8.48
2022-08-28T04:46:13.039Z,8.63
2022-08-28T04:48:42.109Z,7.97
2022-08-28T04:51:11.840Z,10.13
2022-08-28T04:53:40.456Z,8.50
2022-08-28T04:56:11.120Z,10.38
2022-08-28T04:58:40.133Z,7.70
2022-08-28T05:01:11.408Z,8.80
2022-08-28T05:03:40.155Z,8.10
2022-08-28T05:06:08.601Z,9.68
2022-08-28T05:08:36.770Z,7.40
2022-08-28T05:11:32.745Z,8.55
2022-08-28T05:14:12.647Z,11.18
2022-08-28T05:16:51.698Z,6.47
2022-08-28T05:19:21.089Z,9.93
2022-08-28T05:21:49.196Z,7.25
2022-08-28T05:24:17.545Z,8.95
2022-08-28T05:26:48.272Z,7.65
2022-08-28T05:29:17.023Z,9.48
2022-08-28T05:31:46.405Z,6.13
2022-08-28T05:34:15.437Z,8.35
2022-08-28T05:36:44.285Z,8.98
2022-08-28T05:39:13.090Z,9.88
2022-08-28T05:41:44.005Z,7.22
2022-08-28T05:44:14.165Z,8.82
2022-08-28T05:46:44.510Z,8.13
2022-08-28T05:49:16.305Z,7.95
2022-08-28T05:51:44.415Z,9.00
2022-08-28T05:54:12.651Z,7.18
2022-08-28T05:56:41.238Z,8.20
2022-08-28T05:59:09.803Z,9.13
2022-08-28T06:01:44.229Z,8.45
2022-08-28T06:04:26.027Z,9.93
2022-08-28T06:06:54.166Z,7.15
2022-08-28T06:09:29.601Z,7.70
2022-08-28T06:11:59.633Z,6.93
2022-08-28T06:14:27.897Z,7.57
2022-08-28T06:16:57.490Z,7.70
2022-08-28T06:19:27.714Z,8.18
2022-08-28T06:21:57.393Z,4.35
2022-08-28T06:24:26.502Z,8.35
2022-08-28T06:26:54.636Z,7.30
2022-08-28T06:29:27.724Z,6.43
2022-08-28T06:31:58.639Z,6.47
2022-08-28T06:34:27.419Z,9.77
2022-08-28T06:36:55.509Z,6.93
2022-08-28T06:39:23.981Z,7.65
2022-08-28T06:41:51.979Z,6.93
2022-08-28T06:44:21.624Z,9.07
2022-08-28T06:46:53.079Z,7.07
2022-08-28T06:49:21.543Z,7.25
2022-08-28T06:51:49.650Z,10.38
2022-08-28T06:54:22.812Z,8.02
2022-08-28T06:56:52.099Z,5.60
2022-08-28T06:59:20.031Z,7.53
2022-08-28T07:01:47.999Z,8.68
2022-08-28T07:04:16.985Z,7.25
2022-08-28T07:06:47.048Z,5.63
2022-08-28T07:09:15.405Z,8.00
2022-08-28T07:11:46.863Z,8.52
2022-08-28T07:14:14.887Z,7.82
2022-08-28T07:16:44.707Z,8.73
2022-08-28T07:19:13.051Z,7.25
2022-08-28T07:21:43.824Z,5.32
2022-08-28T07:24:14.881Z,6.65
2022-08-28T07:26:44.120Z,5.18
2022-08-28T07:29:12.595Z,7.70
2022-08-28T07:31:45.954Z,6.30
2022-08-28T07:34:14.527Z,5.85
2022-08-28T07:36:43.325Z,6.57
2022-08-28T07:39:12.861Z,7.68
2022-08-28T07:41:43.109Z,8.98
2022-08-28T07:44:33.105Z,7.88
2022-08-28T07:47:04.498Z,7.63
2022-08-28T07:49:34.013Z,10.88
2022-08-28T07:52:02.351Z,6.53
2022-08-28T07:54:30.235Z,7.00
2022-08-28T07:56:58.352Z,7.88
2022-08-28T07:59:26.351Z,6.28
2022-08-28T08:01:54.224Z,8.95
2022-08-28T08:04:23.748Z,7.40
2022-08-28T08:06:58.150Z,8.50
2022-08-28T08:09:27.245Z,8.38
2022-08-28T08:11:57.651Z,8.63
2022-08-28T08:14:25.681Z,5.72
2022-08-28T08:16:53.900Z,10.32
2022-08-28T08:19:22.425Z,6.97
2022-08-28T08:21:54.622Z,6.93
2022-08-28T08:24:27.200Z,6.72
2022-08-28T08:27:02.263Z,5.63
2022-08-28T08:29:33.522Z,8.70
2022-08-28T08:32:06.389Z,14.85
2022-08-28T08:34:56.181Z,11.27
2022-08-28T08:37:24.256Z,17.73
2022-08-28T08:39:53.821Z,9.98
2022-08-28T08:42:31.766Z,9.85
2022-08-28T08:45:04.441Z,14.38
2022-08-28T08:47:49.061Z,9.50
2022-08-28T08:50:32.864Z,8.85
2022-08-28T08:53:12.505Z,12.63
2022-08-28T08:55:47.188Z,7.47
2022-08-28T08:58:26.030Z,12.50
2022-08-28T09:01:14.230Z,9.70
2022-08-28T09:04:06.399Z,9.70
2022-08-28T09:06:42.817Z,13.35
2022-08-28T09:09:33.800Z,11.50
2022-08-28T09:12:06.809Z,6.50
2022-08-28T09:14:42.890Z,6.57
2022-08-28T09:17:12.201Z,9.23
2022-08-28T09:19:40.084Z,7.03
2022-08-28T09:22:08.001Z,8.57
2022-08-28T09:24:37.131Z,9.60
2022-08-28T09:27:28.010Z,8.77
2022-08-28T09:30:07.676Z,11.95
2022-08-28T09:32:44.340Z,9.48
2022-08-28T09:35:29.217Z,9.18
2022-08-28T09:38:17.375Z,9.75
2022-08-28T09:41:03.846Z,10.50
2022-08-28T09:43:33.772Z,9.55
2022-08-28T09:46:04.511Z,10.70
2022-08-28T09:48:41.476Z,8.95
2022-08-28T09:51:15.183Z,9.15
2022-08-28T09:54:05.858Z,9.57
2022-08-28T09:56:36.178Z,8.68
2022-08-28T09:59:10.529Z,7.85
2022-08-28T10:01:49.316Z,8.40
2022-08-28T10:04:35.909Z,6.82
2022-08-28T10:07:15.863Z,10.27
2022-08-28T10:09:59.025Z,9.02
2022-08-28T10:12:48.789Z,10.10
2022-08-28T10:15:31.770Z,7.15
2022-08-28T10:18:18.180Z,9.52
2022-08-28T10:20:50.006Z,6.43
2022-08-28T10:23:24.955Z,8.30
2022-08-28T10:26:14.007Z,6.55
2022-08-28T10:28:57.307Z,9.57
2022-08-28T10:31:59.710Z,5.68
2022-08-28T10:34:52.368Z,5.45
2022-08-28T10:37:29.371Z,8.15
2022-08-28T10:40:05.693Z,6.07
2022-08-28T10:42:36.977Z,10.60
2022-08-28T10:45:10.292Z,9.48
2022-08-28T10:47:42.264Z,6.95
2022-08-28T10:50:18.302Z,7.63
2022-08-28T10:52:49.554Z,6.30
2022-08-28T10:55:22.341Z,8.98
2022-08-28T10:58:24.285Z,8.70
2022-08-28T11:01:06.584Z,10.32
2022-08-28T11:03:44.712Z,7.90
2022-08-28T11:06:29.798Z,8.07
2022-08-28T11:09:00.470Z,7.50
2022-08-28T11:11:46.578Z,7.78
2022-08-28T11:14:28.437Z,13.68
2022-08-28T11:16:59.840Z,7.85
2022-08-28T11:20:05.980Z,11.07
2022-08-28T11:22:47.827Z,5.63
2022-08-28T11:25:40.206Z,10.43
2022-08-28T11:28:43.000Z,5.97
2022-08-28T11:31:19.088Z,10.02
2022-08-28T11:33:59.627Z,8.02
2022-08-28T11:36:29.466Z,11.75
2022-08-28T11:38:57.936Z,9.02
2022-08-28T11:41:36.771Z,9.45
2022-08-28T11:44:13.462Z,8.00
2022-08-28T11:46:46.784Z,7.38
2022-08-28T11:49:38.307Z,7.28
2022-08-28T11:52:21.456Z,9.38
2022-08-28T11:55:14.202Z,6.38
2022-08-28T11:57:45.103Z,5.47
2022-08-28T12:00:25.765Z,9.38
2022-08-28T12:03:09.163Z,5.80
2022-08-28T12:05:40.776Z,6.07
2022-08-28T12:08:10.912Z,8.63
2022-08-28T12:10:38.709Z,9.80
2022-08-28T12:13:10.404Z,13.00
2022-08-28T12:15:41.056Z,7.50
2022-08-28T12:18:12.196Z,7.13
2022-08-28T12:20:58.050Z,6.30
2022-08-28T12:23:32.977Z,6.40
2022-08-28T12:26:16.480Z,12.07
2022-08-28T12:28:56.134Z,7.82
2022-08-28T12:32:01.580Z,5.03
2022-08-28T12:35:01.153Z,9.93
2022-08-28T12:37:39.688Z,6.40
2022-08-28T12:40:53.556Z,8.40
2022-08-28T12:43:28.841Z,7.18
2022-08-28T12:46:19.347Z,9.68
2022-08-28T12:48:59.649Z,11.00
2022-08-28T12:51:30.827Z,21.38
2022-08-28T12:54:01.061Z,9.23
2022-08-28T12:56:30.492Z,18.75
2022-08-28T12:59:38.151Z,21.75
2022-08-28T13:02:13.463Z,21.58
2022-08-28T13:04:46.075Z,19.20
2022-08-28T13:07:16.281Z,14.98
2022-08-28T13:09:53.114Z,15.60
2022-08-28T13:12:54.654Z,21.42
2022-08-28T13:15:42.661Z,18.48
2022-08-28T13:18:11.252Z,22.80
2022-08-28T13:20:39.938Z,12.52
2022-08-28T13:23:08.082Z,13.40
2022-08-28T13:25:37.529Z,15.82
2022-08-28T13:28:14.163Z,13.35
2022-08-28T13:30:42.860Z,15.02
2022-08-28T13:33:26.256Z,11.75
2022-08-28T13:35:55.432Z,11.00
2022-08-28T13:38:25.204Z,10.73
2022-08-28T13:40:59.823Z,11.43
2022-08-28T13:43:30.684Z,8.85
2022-08-28T13:45:58.634Z,10.02
2022-08-28T13:48:27.925Z,11.15
2022-08-28T13:51:03.550Z,16.90
2022-08-28T13:53:33.213Z,9.93
2022-08-28T13:56:01.665Z,6.72
2022-08-28T13:58:32.727Z,10.02
2022-08-28T14:01:00.795Z,9.77
2022-08-28T14:03:39.198Z,7.03
2022-08-28T14:06:14.431Z,7.13
2022-08-28T14:08:43.991Z,8.70
2022-08-28T14:11:13.321Z,8.57
2022-08-28T14:13:47.012Z,8.10
2022-08-28T14:16:24.904Z,8.88
2022-08-28T14:18:53.384Z,6.95
2022-08-28T14:21:22.049Z,7.50
2022-08-28T14:23:50.664Z,11.38
2022-08-28T14:26:18.583Z,5.82
2022-08-28T14:28:46.743Z,7.55
2022-08-28T14:31:15.034Z,6.85
2022-08-28T14:33:45.370Z,8.60
2022-08-28T14:36:18.534Z,8.50
2022-08-28T14:38:46.588Z,7.43
2022-08-28T14:41:15.440Z,7.43
2022-08-28T14:43:44.012Z,10.45
2022-08-28T14:46:20.727Z,4.95
2022-08-28T14:48:49.223Z,9.30
2022-08-28T14:51:18.319Z,4.85
2022-08-28T14:53:46.337Z,6.75
2022-08-28T14:56:14.709Z,9.88
2022-08-28T14:58:43.081Z,5.18
2022-08-28T15:01:11.385Z,8.43
2022-08-28T15:03:39.238Z,8.27
2022-08-28T15:06:08.808Z,4.38
2022-08-28T15:08:37.549Z,4.68
2022-08-28T15:11:18.721Z,8.38
2022-08-28T15:13:48.140Z,6.30
2022-08-28T15:16:26.662Z,8.75
2022-08-28T15:18:58.397Z,7.90
2022-08-28T15:21:40.613Z,6.82
2022-08-28T15:24:10.025Z,5.68
2022-08-28T15:26:40.286Z,8.20
2022-08-28T15:29:08.179Z,6.13
2022-08-28T15:31:39.588Z,8.10
2022-08-28T15:34:09.887Z,5.30
2022-08-28T15:36:45.185Z,8.68
2022-08-28T15:39:42.589Z,5.65
2022-08-28T15:42:11.637Z,5.25
2022-08-28T15:44:39.613Z,4.72
2022-08-28T15:47:08.114Z,7.15
2022-08-28T15:49:43.375Z,5.35
2022-08-28T15:52:14.746Z,4.78
2022-08-28T15:54:42.779Z,7.15
2022-08-28T15:57:10.765Z,7.57
2022-08-28T15:59:48.778Z,7.10
2022-08-28T16:02:20.434Z,7.20
2022-08-28T16:04:48.778Z,8.45
2022-08-28T16:07:17.533Z,6.55
2022-08-28T16:09:45.547Z,6.68
2022-08-28T16:12:14.336Z,5.93
2022-08-28T16:14:42.502Z,5.47
2022-08-28T16:17:11.445Z,7.85
2022-08-28T16:19:40.685Z,3.70
2022-08-28T16:22:10.108Z,5.80
2022-08-28T16:24:38.494Z,8.05
2022-08-28T16:27:15.345Z,4.38
2022-08-28T16:29:59.897Z,6.38
2022-08-28T16:32:27.772Z,5.25
2022-08-28T16:34:55.613Z,4.70
2022-08-28T16:37:23.588Z,5.65
2022-08-28T16:39:56.858Z,5.57
2022-08-28T16:42:32.215Z,5.57
2022-08-28T16:45:00.719Z,7.00
2022-08-28T16:47:31.780Z,4.97
2022-08-28T16:50:02.128Z,3.22
2022-08-28T16:52:30.229Z,6.20
2022-08-28T16:55:00.079Z,4.50
2022-08-28T16:57:28.327Z,8.10
2022-08-28T16:59:56.332Z,7.47
2022-08-28T17:02:26.349Z,4.90
2022-08-28T17:04:54.969Z,4.30
2022-08-28T17:07:23.058Z,5.03
2022-08-28T17:09:50.844Z,4.78
2022-08-28T17:12:18.740Z,6.45
2022-08-28T17:14:46.714Z,7.32
2022-08-28T17:17:14.538Z,5.10
2022-08-28T17:19:42.503Z,6.53
2022-08-28T17:22:29.193Z,3.55
2022-08-28T17:24:59.014Z,4.50
2022-08-28T17:27:27.755Z,5.20
2022-08-28T17:29:55.868Z,5.32
2022-08-28T17:32:23.810Z,6.55
2022-08-28T17:34:51.601Z,4.50
2022-08-28T17:37:21.008Z,5.63
2022-08-28T17:39:49.130Z,5.55
2022-08-28T17:42:16.915Z,3.83
2022-08-28T17:44:44.896Z,5.75
2022-08-28T17:47:12.853Z,5.43
2022-08-28T17:49:40.841Z,6.10
2022-08-28T17:52:08.713Z,4.95
2022-08-28T17:54:36.970Z,4.63
2022-08-28T17:57:05.087Z,17.10
2022-08-28T17:59:42.898Z,8.40
2022-08-28T18:02:11.233Z,7.18
2022-08-28T18:04:39.315Z,13.00
2022-08-28T18:07:07.114Z,7.90
2022-08-28T18:09:35.331Z,13.30
2022-08-28T18:12:03.746Z,11.90
2022-08-28T18:14:31.579Z,14.55
2022-08-28T18:16:59.446Z,12.57
2022-08-28T18:19:27.461Z,12.85
2022-08-28T18:21:55.739Z,7.13
2022-08-28T18:24:23.675Z,11.07
2022-08-28T18:26:52.905Z,12.95
2022-08-28T18:29:20.767Z,11.60
2022-08-28T18:31:49.764Z,13.57
2022-08-28T18:34:17.733Z,14.63
2022-08-28T18:36:46.133Z,17.80
2022-08-28T18:39:13.980Z,12.88
2022-08-28T18:41:46.949Z,11.00
2022-08-28T18:44:15.595Z,13.30
2022-08-28T18:46:45.273Z,15.05
2022-08-28T18:49:13.506Z,17.70
2022-08-28T18:51:43.591Z,13.65
2022-08-28T18:54:13.368Z,16.52
2022-08-28T18:56:41.291Z,18.00
2022-08-28T18:59:09.241Z,18.15
2022-08-28T19:01:37.368Z,12.30
2022-08-28T19:04:06.695Z,14.77
2022-08-28T19:06:35.347Z,13.75
2022-08-28T19:09:05.471Z,10.98
2022-08-28T19:11:33.829Z,12.85
2022-08-28T19:14:03.845Z,16.83
2022-08-28T19:16:32.470Z,11.90
2022-08-28T19:19:01.868Z,13.20
2022-08-28T19:21:30.295Z,14.27
2022-08-28T19:23:59.183Z,14.93
2022-08-28T19:26:27.695Z,14.95
2022-08-28T19:28:56.052Z,38.75
2022-08-28T19:31:25.232Z,23.30
2022-08-28T19:33:53.169Z,17.13
2022-08-28T19:36:21.569Z,22.40
2022-08-28T19:38:49.925Z,16.80
2022-08-28T19:41:20.692Z,9.73
2022-08-28T19:43:49.473Z,19.75
2022-08-28T19:46:19.820Z,14.35
2022-08-28T19:48:50.676Z,11.32
2022-08-28T19:51:23.441Z,10.50
2022-08-28T19:53:58.932Z,27.15
2022-08-28T19:56:31.787Z,10.00
2022-08-28T19:59:01.652Z,15.60
2022-08-28T20:01:33.018Z,14.70
2022-08-28T20:04:01.503Z,16.92
2022-08-28T20:06:31.979Z,9.40
2022-08-28T20:09:01.038Z,13.38
2022-08-28T20:11:30.817Z,10.55
2022-08-28T20:14:04.638Z,9.57
2022-08-28T20:16:36.156Z,12.90
2022-08-28T20:19:05.057Z,11.75
2022-08-28T20:21:37.067Z,9.70
2022-08-28T20:24:12.099Z,9.63
2022-08-28T20:26:40.185Z,10.05
2022-08-28T20:29:09.601Z,12.23
2022-08-28T20:31:43.181Z,9.10
2022-08-28T20:34:12.494Z,9.88
2022-08-28T20:36:40.467Z,11.95
2022-08-28T20:39:09.560Z,7.78
2022-08-28T20:41:39.832Z,8.98
2022-08-28T20:44:10.934Z,8.48
2022-08-28T20:46:41.626Z,7.13
2022-08-28T20:49:13.749Z,10.90
2022-08-28T20:52:01.197Z,7.70
2022-08-28T20:54:41.777Z,10.05
2022-08-28T20:57:12.108Z,9.10
2022-08-28T20:59:42.091Z,7.07
2022-08-28T21:02:17.711Z,8.60
2022-08-28T21:04:46.831Z,10.85
2022-08-28T21:07:16.305Z,9.65
2022-08-28T21:10:05.720Z,11.98
2022-08-28T21:12:32.358Z,10.20
2022-08-28T21:15:00.502Z,8.55
2022-08-28T21:17:28.870Z,13.68
2022-08-28T21:20:10.312Z,7.80
2022-08-28T21:22:38.670Z,10.98
2022-08-28T21:25:09.088Z,9.32
2022-08-28T21:27:39.926Z,7.57
2022-08-28T21:30:08.819Z,7.25
2022-08-28T21:32:37.172Z,10.10
2022-08-28T21:35:06.934Z,7.25
2022-08-28T21:37:35.474Z,12.38
2022-08-28T21:40:06.854Z,6.13
2022-08-28T21:42:34.944Z,8.95
2022-08-28T21:45:02.880Z,8.88
2022-08-28T21:47:31.581Z,7.22
2022-08-28T21:49:59.805Z,8.05
2022-08-28T21:52:30.787Z,11.57
2022-08-28T21:55:05.379Z,7.63
2022-08-28T21:57:33.379Z,8.38
2022-08-28T22:00:01.172Z,6.70
2022-08-28T22:02:29.095Z,11.60
2022-08-28T22:04:57.234Z,9.25
2022-08-28T22:07:25.889Z,11.63
2022-08-28T22:09:53.641Z,12.93
2022-08-28T22:12:21.526Z,8.38
2022-08-28T22:14:49.284Z,9.80
2022-08-28T22:17:19.754Z,14.13
2022-08-28T22:19:47.589Z,7.70
2022-08-28T22:22:34.757Z,12.23
2022-08-28T22:25:02.554Z,19.33
2022-08-28T22:27:32.111Z,19.48
2022-08-28T22:30:00.286Z,18.35
2022-08-28T22:32:28.272Z,20.42
2022-08-28T22:34:56.268Z,13.55
2022-08-28T22:37:25.962Z,16.20
2022-08-28T22:39:54.029Z,16.88
2022-08-28T22:42:21.902Z,14.98
2022-08-28T22:44:49.898Z,18.10
2022-08-28T22:47:18.996Z,14.60
2022-08-28T22:49:47.413Z,16.17
2022-08-28T22:52:15.708Z,15.75
2022-08-28T22:54:43.594Z,15.60
2022-08-28T22:57:11.850Z,20.25
2022-08-28T22:59:39.879Z,18.05
2022-08-28T23:02:08.079Z,17.73
2022-08-28T23:04:36.121Z,17.17
2022-08-28T23:07:05.058Z,17.60
2022-08-28T23:09:33.124Z,19.52
2022-08-28T23:12:07.814Z,15.30
2022-08-28T23:14:35.856Z,17.33
2022-08-28T23:17:03.814Z,14.32
2022-08-28T23:19:32.457Z,15.38
2022-08-28T23:22:00.714Z,15.50
2022-08-28T23:24:28.662Z,15.35
2022-08-28T23:26:56.709Z,13.45
2022-08-28T23:29:24.761Z,15.25
2022-08-28T23:31:52.755Z,16.60
2022-08-28T23:34:20.767Z,15.35
2022-08-28T23:36:48.714Z,11.45
2022-08-28T23:39:16.625Z,13.20
2022-08-28T23:41:44.739Z,13.50
2022-08-28T23:44:12.743Z,12.88
2022-08-28T23:46:41.443Z,12.85
2022-08-28T23:49:11.047Z,13.57
2022-08-28T23:51:39.835Z,12.70
2022-08-28T23:54:09.185Z,12.70
2022-08-28T23:56:37.035Z,12.52
2022-08-28T23:59:05.738Z,12.65
